OVO0649 VVNB-ZSPD
Flight info
| Callsign | OVO0649 |
|---|---|
| Flight time | N/A |
| Altitude | 37100 |
| Route | NAKHA R474 GYA A599 ELNEX G204 MULOV V73 SUPAR B221 AND |
| Aircraft | A339/H-SDE2E3GHIJ3J4J5LM1ORWXY/LB1D1 |
Departure
| Time | 2026-05-01 08:03 |
|---|---|
| Airport | Noi Bai International Airport (VVNB) |
Arrival
| Time | N/A |
|---|---|
| Airport | Shanghai Pudong International Airport (ZSPD) |
| Time | Latitude | Longitude | Altitude | Speed | Heading |
|---|---|---|---|---|---|
| 2026-05-01 07:57 | 21.21970 | 105.79413 | 56 ft | 1 kts | 267° |
| 2026-05-01 07:57 | 21.21971 | 105.79394 | 56 ft | 2 kts | 278° |
| 2026-05-01 07:58 | 21.22002 | 105.79301 | 56 ft | 12 kts | 290° |
| 2026-05-01 07:58 | 21.22058 | 105.79128 | 56 ft | 13 kts | 288° |
| 2026-05-01 07:59 | 21.22115 | 105.78938 | 56 ft | 15 kts | 287° |
| 2026-05-01 07:59 | 21.22182 | 105.78718 | 56 ft | 15 kts | 288° |
| 2026-05-01 08:00 | 21.22329 | 105.78597 | 56 ft | 0 kts | 15° |
| 2026-05-01 08:01 | 21.22414 | 105.78632 | 56 ft | 7 kts | 30° |
| 2026-05-01 08:01 | 21.22444 | 105.78676 | 56 ft | 7 kts | 75° |
| 2026-05-01 08:01 | 21.22443 | 105.78736 | 56 ft | 9 kts | 101° |
| 2026-05-01 08:02 | 21.22181 | 105.79611 | 60 ft | 129 kts | 105° |
| 2026-05-01 08:02 | 21.21932 | 105.80687 | 74 ft | 179 kts | 106° |
| 2026-05-01 08:03 | 21.21237 | 105.83151 | 1306 ft | 166 kts | 109° |
| 2026-05-01 08:03 | 21.20935 | 105.84185 | 1879 ft | 158 kts | 110° |
| 2026-05-01 08:03 | 21.20254 | 105.86546 | 2469 ft | 185 kts | 109° |
| 2026-05-01 08:04 | 21.19449 | 105.89394 | 3053 ft | 218 kts | 109° |
| 2026-05-01 08:04 | 21.18586 | 105.92476 | 3653 ft | 251 kts | 109° |
| 2026-05-01 08:05 | 21.17541 | 105.96223 | 4682 ft | 271 kts | 107° |
| 2026-05-01 08:05 | 21.17407 | 105.98269 | 5279 ft | 280 kts | 86° |
| 2026-05-01 08:05 | 21.17651 | 106.00338 | 5881 ft | 285 kts | 82° |
| 2026-05-01 08:06 | 21.18975 | 106.04224 | 6962 ft | 298 kts | 59° |
| 2026-05-01 08:06 | 21.21060 | 106.06887 | 7848 ft | 305 kts | 39° |
| 2026-05-01 08:07 | 21.24678 | 106.09056 | 8965 ft | 308 kts | 17° |
| 2026-05-01 08:07 | 21.28319 | 106.10745 | 10002 ft | 316 kts | 25° |
| 2026-05-01 08:08 | 21.30333 | 106.11921 | 10373 ft | 328 kts | 26° |
| 2026-05-01 08:08 | 21.34081 | 106.14211 | 10839 ft | 355 kts | 27° |
| 2026-05-01 08:09 | 21.38356 | 106.16870 | 11408 ft | 379 kts | 27° |
| 2026-05-01 08:09 | 21.40254 | 106.18058 | 11822 ft | 384 kts | 27° |
| 2026-05-01 08:09 | 21.42545 | 106.19493 | 12370 ft | 387 kts | 27° |
| 2026-05-01 08:10 | 21.47092 | 106.22341 | 13436 ft | 393 kts | 27° |
| 2026-05-01 08:10 | 21.51538 | 106.25129 | 14919 ft | 384 kts | 27° |
| 2026-05-01 08:11 | 21.56160 | 106.28025 | 15951 ft | 390 kts | 27° |
| 2026-05-01 08:11 | 21.60072 | 106.30476 | 16823 ft | 394 kts | 27° |
| 2026-05-01 08:12 | 21.63957 | 106.32912 | 17640 ft | 398 kts | 27° |
| 2026-05-01 08:12 | 21.66225 | 106.34336 | 18121 ft | 401 kts | 27° |
| 2026-05-01 08:12 | 21.70107 | 106.36776 | 18953 ft | 404 kts | 27° |
| 2026-05-01 08:13 | 21.72697 | 106.38404 | 19486 ft | 406 kts | 27° |
| 2026-05-01 08:13 | 21.75159 | 106.39951 | 19992 ft | 408 kts | 27° |
| 2026-05-01 08:13 | 21.79935 | 106.42956 | 20897 ft | 412 kts | 27° |
| 2026-05-01 08:14 | 21.82439 | 106.44533 | 21351 ft | 414 kts | 27° |
| 2026-05-01 08:14 | 21.84939 | 106.46110 | 21784 ft | 416 kts | 27° |
| 2026-05-01 08:14 | 21.87355 | 106.47632 | 22191 ft | 418 kts | 27° |
| 2026-05-01 08:14 | 21.89887 | 106.49229 | 22623 ft | 420 kts | 27° |
| 2026-05-01 08:15 | 21.92756 | 106.51065 | 23077 ft | 424 kts | 29° |
| 2026-05-01 08:15 | 21.96879 | 106.54140 | 23752 ft | 430 kts | 34° |
| 2026-05-01 08:15 | 22.00019 | 106.56843 | 24278 ft | 434 kts | 36° |
| 2026-05-01 08:16 | 22.01600 | 106.58228 | 24541 ft | 436 kts | 36° |
| 2026-05-01 08:16 | 22.03955 | 106.60297 | 24917 ft | 439 kts | 36° |
| 2026-05-01 08:16 | 22.06350 | 106.62396 | 25292 ft | 441 kts | 36° |
| 2026-05-01 08:16 | 22.08402 | 106.64191 | 25619 ft | 443 kts | 36° |
| 2026-05-01 08:17 | 22.11295 | 106.66717 | 26054 ft | 446 kts | 36° |
| 2026-05-01 08:17 | 22.12623 | 106.67876 | 26241 ft | 447 kts | 36° |
| 2026-05-01 08:17 | 22.14719 | 106.69752 | 26529 ft | 450 kts | 38° |
| 2026-05-01 08:17 | 22.16537 | 106.71524 | 26785 ft | 453 kts | 40° |
| 2026-05-01 08:18 | 22.19633 | 106.74777 | 27239 ft | 456 kts | 41° |
| 2026-05-01 08:18 | 22.23426 | 106.78842 | 27782 ft | 460 kts | 42° |
| 2026-05-01 08:19 | 22.27894 | 106.83619 | 28384 ft | 464 kts | 41° |
| 2026-05-01 08:19 | 22.30040 | 106.85981 | 28659 ft | 468 kts | 47° |
| 2026-05-01 08:19 | 22.31833 | 106.88704 | 28908 ft | 475 kts | 58° |
| 2026-05-01 08:19 | 22.33197 | 106.91984 | 29209 ft | 479 kts | 71° |
| 2026-05-01 08:20 | 22.33992 | 106.95489 | 29517 ft | 482 kts | 78° |
| 2026-05-01 08:20 | 22.34613 | 106.99096 | 29821 ft | 484 kts | 79° |
| 2026-05-01 08:20 | 22.35198 | 107.02640 | 30140 ft | 485 kts | 79° |
| 2026-05-01 08:20 | 22.35803 | 107.06229 | 30710 ft | 480 kts | 79° |
| 2026-05-01 08:21 | 22.36410 | 107.09720 | 31210 ft | 477 kts | 78° |
| 2026-05-01 08:21 | 22.37037 | 107.13258 | 31533 ft | 478 kts | 78° |
| 2026-05-01 08:21 | 22.37666 | 107.16759 | 31801 ft | 480 kts | 78° |
| 2026-05-01 08:21 | 22.38301 | 107.20297 | 32062 ft | 482 kts | 78° |
| 2026-05-01 08:22 | 22.38942 | 107.23867 | 32340 ft | 484 kts | 78° |